Time;durP1;ratioP1;P1;durP2;ratioP2;P2;SDS_P1;SDS_P2;PMS_P1;PMS_P2;Temp;Humidity;BMP_temperature;BMP_pressure;BME280_temperature;BME280_humidity;BME280_pressure;Samples;Min_cycle;Max_cycle;Signal;HPM_P1;HPM_P2
2022/11/04 00:01:28;;;;;;;;;;;;;;;;;;5087025;28;19942;-84
2022/11/04 00:03:54;;;;;;;;;;;;;;;;;;5067803;28;19959;-83
2022/11/04 00:06:20;;;;;;;;;;;;;;;;;;5049913;28;19927;-83
2022/11/04 00:08:46;;;;;;;;;;;;;;;;;;5081339;28;20119;-83
2022/11/04 00:13:57;;;;;;;;;;;;;;;;;;5064320;28;19924;-81
2022/11/04 00:19:08;;;;;;;;;;;;;;;;;;5071005;28;19959;-82
2022/11/04 00:29:49;;;;;;;;;;;;;;;;;;5086896;28;20368;-82
2022/11/04 00:35:00;;;;;;;;;;;;;;;;;;5063018;28;20056;-82
2022/11/04 00:37:26;;;;;;;;;;;;;;;;;;5063954;28;19952;-83
2022/11/04 00:39:52;;;;;;;;;;;;;;;;;;5066583;28;19959;-82
2022/11/04 00:42:19;;;;;;;;;;;;;;;;;;5046690;28;19966;-83
2022/11/04 00:44:45;;;;;;;;;;;;;;;;;;5048970;28;20008;-83
2022/11/04 00:47:11;;;;;;;;;;;;;;;;;;5065368;28;19960;-83
2022/11/04 00:49:37;;;;;;;;;;;;;;;;;;5049351;28;19924;-85
2022/11/04 00:52:03;;;;;;;;;;;;;;;;;;5065916;28;19916;-82
2022/11/04 00:54:30;;;;;;;;;;;;;;;;;;5085875;28;19974;-81
2022/11/04 00:56:56;;;;;;;;;;;;;;;;;;5042917;28;19970;-81
2022/11/04 00:59:22;;;;;;;;;;;;;;;;;;5061614;28;19916;-81
2022/11/04 01:01:48;;;;;;;;;;;;;;;;;;5080468;28;20378;-83
2022/11/04 01:04:14;;;;;;;;;;;;;;;;;;5049134;28;19967;-82
2022/11/04 01:06:40;;;;;;;;;;;;;;;;;;5067204;28;19959;-82
2022/11/04 01:09:07;;;;;;;;;;;;;;;;;;5083902;28;19963;-83
2022/11/04 01:11:33;;;;;;;;;;;;;;;;;;5070261;28;20339;-82
2022/11/04 01:13:59;;;;;;;;;;;;;;;;;;5068938;28;19916;-82
2022/11/04 01:16:26;;;;;;;;;;;;;;;;;;5049227;28;19912;-83
2022/11/04 01:18:52;;;;;;;;;;;;;;;;;;5061685;28;19978;-84
2022/11/04 01:21:18;;;;;;;;;;;;;;;;;;5053354;28;20015;-83
2022/11/04 01:23:45;;;;;;;;;;;;;;;;;;5051135;28;20410;-83
2022/11/04 01:26:11;;;;;;;;;;;;;;;;;;5048812;28;19956;-82
2022/11/04 01:28:37;;;;;;;;;;;;;;;;;;5062317;28;20338;-82
2022/11/04 01:31:03;;;;;;;;;;;;;;;;;;5084643;28;19921;-82
2022/11/04 01:33:29;;;;;;;;;;;;;;;;;;5067258;28;19986;-82
2022/11/04 01:35:56;;;;;;;;;;;;;;;;;;5037847;28;20350;-83
2022/11/04 01:38:22;;;;;;;;;;;;;;;;;;5056780;28;22211;-82
2022/11/04 01:40:48;;;;;;;;;;;;;;;;;;5079591;28;20378;-83
2022/11/04 01:43:14;;;;;;;;;;;;;;;;;;5062216;28;19950;-83
2022/11/04 01:45:40;;;;;;;;;;;;;;;;;;5054164;28;20386;-83
2022/11/04 01:48:07;;;;;;;;;;;;;;;;;;5062468;28;20066;-84
2022/11/04 01:50:33;;;;;;;;;;;;;;;;;;5061670;28;20328;-84
2022/11/04 01:52:59;;;;;;;;;;;;;;;;;;5038116;28;19967;-83
2022/11/04 01:55:25;;;;;;;;;;;;;;;;;;5070481;28;19916;-81
2022/11/04 01:57:51;;;;;;;;;;;;;;;;;;5070362;28;19975;-83
2022/11/04 02:00:18;;;;;;;;;;;;;;;;;;5087162;28;19955;-83
2022/11/04 02:02:44;;;;;;;;;;;;;;;;;;5050554;28;19925;-84
2022/11/04 02:05:10;;;;;;;;;;;;;;;;;;5069542;28;19920;-84
2022/11/04 02:07:36;;;;;;;;;;;;;;;;;;5047965;28;19912;-83
2022/11/04 02:10:02;;;;;;;;;;;;;;;;;;5051428;28;19951;-83
2022/11/04 02:15:14;;;;;;;;;;;;;;;;;;5069067;28;19951;-82
2022/11/04 02:17:40;;;;;;;;;;;;;;;;;;5048996;28;19961;-83
2022/11/04 02:20:06;;;;;;;;;;;;;;;;;;5065930;28;19916;-82
2022/11/04 02:22:32;;;;;;;;;;;;;;;;;;5068694;28;19973;-82
2022/11/04 02:24:59;;;;;;;;;;;;;;;;;;5051466;28;20051;-81
2022/11/04 02:27:25;;;;;;;;;;;;;;;;;;5049403;28;19947;-82
2022/11/04 02:29:51;;;;;;;;;;;;;;;;;;5061750;28;20380;-82
2022/11/04 02:32:17;;;;;;;;;;;;;;;;;;5043587;28;19994;-82
2022/11/04 02:34:43;;;;;;;;;;;;;;;;;;5052070;28;20300;-81
2022/11/04 02:37:10;;;;;;;;;;;;;;;;;;5050917;28;19951;-84
2022/11/04 02:39:36;;;;;;;;;;;;;;;;;;5064543;28;20024;-84
2022/11/04 02:42:03;;;;;;;;;;;;;;;;;;5050292;28;19979;-84
2022/11/04 02:44:29;;;;;;;;;;;;;;;;;;5044836;28;19966;-84
2022/11/04 02:46:58;;;;;;;;;;;;;;;;;;5067888;28;19924;-84
2022/11/04 02:49:25;;;;;;;;;;;;;;;;;;5049169;28;21453;-86
2022/11/04 02:51:51;;;;;;;;;;;;;;;;;;5053405;28;19916;-84
2022/11/04 02:54:17;;;;;;;;;;;;;;;;;;5042171;28;20368;-84
2022/11/04 02:56:43;;;;;;;;;;;;;;;;;;5067667;28;19952;-84
2022/11/04 02:59:10;;;;;;;;;;;;;;;;;;5051833;28;19963;-84
2022/11/04 03:01:36;;;;;;;;;;;;;;;;;;5078685;28;19921;-84
2022/11/04 03:04:02;;;;;;;;;;;;;;;;;;5049793;28;20014;-84
2022/11/04 03:06:28;;;;;;;;;;;;;;;;;;5053026;28;19956;-83
2022/11/04 03:08:54;;;;;;;;;;;;;;;;;;5050229;28;19920;-82
2022/11/04 03:11:21;;;;;;;;;;;;;;;;;;5058800;28;19921;-82
2022/11/04 03:13:47;;;;;;;;;;;;;;;;;;5088304;28;19977;-84
2022/11/04 03:16:13;;;;;;;;;;;;;;;;;;5069112;28;19959;-84
2022/11/04 03:18:39;;;;;;;;;;;;;;;;;;5051760;28;19951;-88
2022/11/04 03:21:05;;;;;;;;;;;;;;;;;;5067331;28;19931;-82
2022/11/04 03:23:32;;;;;;;;;;;;;;;;;;5069159;28;19962;-82
2022/11/04 03:25:58;;;;;;;;;;;;;;;;;;5066367;28;19955;-83
2022/11/04 03:28:24;;;;;;;;;;;;;;;;;;5048188;28;19935;-83
2022/11/04 03:30:50;;;;;;;;;;;;;;;;;;5059804;28;19974;-83
2022/11/04 03:33:17;;;;;;;;;;;;;;;;;;5060273;28;19952;-84
2022/11/04 03:35:43;;;;;;;;;;;;;;;;;;5068245;28;19954;-80
2022/11/04 03:38:09;;;;;;;;;;;;;;;;;;5059646;28;19917;-80
2022/11/04 03:40:35;;;;;;;;;;;;;;;;;;5063253;28;19982;-80
2022/11/04 03:43:01;;;;;;;;;;;;;;;;;;5045133;28;19968;-80
2022/11/04 03:45:28;;;;;;;;;;;;;;;;;;5066241;28;20505;-81
2022/11/04 03:47:54;;;;;;;;;;;;;;;;;;5082188;28;19967;-81
2022/11/04 03:50:20;;;;;;;;;;;;;;;;;;5058329;28;19970;-81
2022/11/04 03:52:46;;;;;;;;;;;;;;;;;;5051603;28;19951;-83
2022/11/04 03:55:12;;;;;;;;;;;;;;;;;;5070123;28;20057;-83
2022/11/04 03:57:38;;;;;;;;;;;;;;;;;;5046339;28;19962;-83
2022/11/04 04:00:09;;;;;;;;;;;;;;;;;;5084753;28;19970;-83
2022/11/04 04:02:35;;;;;;;;;;;;;;;;;;5063968;28;20386;-84
2022/11/04 04:05:01;;;;;;;;;;;;;;;;;;5043365;28;19917;-83
2022/11/04 04:07:27;;;;;;;;;;;;;;;;;;5063747;28;19951;-83
2022/11/04 04:09:54;;;;;;;;;;;;;;;;;;5050599;28;20105;-85
2022/11/04 04:12:20;;;;;;;;;;;;;;;;;;5046261;28;19968;-85
2022/11/04 04:14:46;;;;;;;;;;;;;;;;;;5047480;28;19956;-83
2022/11/04 04:17:12;;;;;;;;;;;;;;;;;;5047763;28;20363;-84
2022/11/04 04:19:38;;;;;;;;;;;;;;;;;;5049092;28;19956;-84
2022/11/04 04:22:05;;;;;;;;;;;;;;;;;;5055143;28;19963;-85
2022/11/04 04:27:31;;;;;;;;;;;;;;;;;;5064235;28;19948;-85
2022/11/04 04:29:57;;;;;;;;;;;;;;;;;;5050576;28;19965;-84
2022/11/04 04:32:23;;;;;;;;;;;;;;;;;;5062240;28;19951;-85
2022/11/04 04:34:49;;;;;;;;;;;;;;;;;;5045444;28;20061;-84
2022/11/04 04:37:16;;;;;;;;;;;;;;;;;;5085771;28;19959;-85
2022/11/04 04:45:12;;;;;;;;;;;;;;;;;;5070627;28;19965;-82
2022/11/04 04:47:38;;;;;;;;;;;;;;;;;;5054026;28;20204;-82
2022/11/04 04:50:04;;;;;;;;;;;;;;;;;;5050998;28;19955;-81
2022/11/04 04:52:30;;;;;;;;;;;;;;;;;;5054428;28;19951;-83
2022/11/04 04:54:57;;;;;;;;;;;;;;;;;;5027153;28;20662;-83
2022/11/04 04:57:23;;;;;;;;;;;;;;;;;;5067640;28;19944;-83
2022/11/04 04:59:49;;;;;;;;;;;;;;;;;;5055855;28;19948;-84
2022/11/04 05:02:16;;;;;;;;;;;;;;;;;;5051270;28;19963;-84
2022/11/04 05:04:42;;;;;;;;;;;;;;;;;;5053976;28;20383;-83
2022/11/04 05:07:08;;;;;;;;;;;;;;;;;;5068048;28;19940;-84
2022/11/04 05:09:35;;;;;;;;;;;;;;;;;;5052724;28;20047;-83
2022/11/04 05:12:01;;;;;;;;;;;;;;;;;;5088717;28;20046;-82
2022/11/04 05:14:27;;;;;;;;;;;;;;;;;;5072048;28;19939;-83
2022/11/04 05:16:53;;;;;;;;;;;;;;;;;;5048380;28;20374;-83
2022/11/04 05:19:19;;;;;;;;;;;;;;;;;;5081057;28;19959;-83
2022/11/04 05:21:46;;;;;;;;;;;;;;;;;;5072863;28;19955;-83
2022/11/04 05:24:12;;;;;;;;;;;;;;;;;;5058308;28;19916;-82
2022/11/04 05:26:38;;;;;;;;;;;;;;;;;;5075005;28;19985;-83
2022/11/04 05:29:04;;;;;;;;;;;;;;;;;;5073692;28;19955;-83
2022/11/04 05:31:31;;;;;;;;;;;;;;;;;;5053870;28;20593;-83
2022/11/04 05:33:58;;;;;;;;;;;;;;;;;;5050094;28;20367;-83
2022/11/04 05:36:24;;;;;;;;;;;;;;;;;;5061958;28;21756;-83
2022/11/04 05:38:50;;;;;;;;;;;;;;;;;;5060176;28;19959;-82
2022/11/04 05:41:26;;;;;;;;;;;;;;;;;;5055432;28;20425;-83
2022/11/04 05:43:52;;;;;;;;;;;;;;;;;;5054072;28;19920;-82
2022/11/04 05:46:18;;;;;;;;;;;;;;;;;;5044138;28;19917;-82
2022/11/04 05:48:44;;;;;;;;;;;;;;;;;;5042644;28;19966;-83
2022/11/04 05:51:10;;;;;;;;;;;;;;;;;;5046896;28;19959;-83
2022/11/04 05:53:37;;;;;;;;;;;;;;;;;;5067987;28;20629;-84
2022/11/04 05:56:03;;;;;;;;;;;;;;;;;;5070572;28;19950;-83
2022/11/04 05:58:29;;;;;;;;;;;;;;;;;;5042342;28;19963;-85
2022/11/04 06:00:55;;;;;;;;;;;;;;;;;;5051731;28;20426;-83
2022/11/04 06:03:21;;;;;;;;;;;;;;;;;;5050757;28;19974;-83
2022/11/04 06:05:47;;;;;;;;;;;;;;;;;;5064950;28;19948;-83
2022/11/04 06:08:14;;;;;;;;;;;;;;;;;;5050275;28;19912;-84
2022/11/04 06:10:40;;;;;;;;;;;;;;;;;;5061010;28;19917;-85
2022/11/04 06:13:06;;;;;;;;;;;;;;;;;;5053490;28;19916;-85
2022/11/04 06:15:32;;;;;;;;;;;;;;;;;;5053656;28;19916;-86
2022/11/04 06:17:58;;;;;;;;;;;;;;;;;;5068849;28;19935;-83
2022/11/04 06:20:25;;;;;;;;;;;;;;;;;;5091608;28;20375;-85
2022/11/04 06:22:51;;;;;;;;;;;;;;;;;;5054650;28;19932;-82
2022/11/04 06:25:17;;;;;;;;;;;;;;;;;;5080573;28;19924;-80
2022/11/04 06:27:43;;;;;;;;;;;;;;;;;;5063548;28;20073;-82
2022/11/04 06:30:09;;;;;;;;;;;;;;;;;;5088694;28;20338;-82
2022/11/04 06:32:37;;;;;;;;;;;;;;;;;;5074145;28;19927;-82
2022/11/04 06:35:03;;;;;;;;;;;;;;;;;;5090407;28;19901;-82
2022/11/04 06:37:29;;;;;;;;;;;;;;;;;;5093198;28;19927;-83
2022/11/04 06:39:55;;;;;;;;;;;;;;;;;;5110311;28;20296;-83
2022/11/04 06:42:22;;;;;;;;;;;;;;;;;;5090003;28;19924;-84
2022/11/04 06:44:48;;;;;;;;;;;;;;;;;;5073256;28;19916;-82
2022/11/04 06:47:15;;;;;;;;;;;;;;;;;;5069463;28;19916;-81
2022/11/04 06:49:41;;;;;;;;;;;;;;;;;;5081513;28;19932;-81
2022/11/04 06:52:07;;;;;;;;;;;;;;;;;;5082337;28;19928;-80
2022/11/04 06:54:33;;;;;;;;;;;;;;;;;;5064234;28;20375;-82
2022/11/04 06:56:59;;;;;;;;;;;;;;;;;;5083922;28;20370;-80
2022/11/04 06:59:26;;;;;;;;;;;;;;;;;;5068033;28;19931;-79
2022/11/04 07:01:52;;;;;;;;;;;;;;;;;;5086300;28;19959;-80
2022/11/04 07:04:18;;;;;;;;;;;;;;;;;;5065260;28;19948;-79
2022/11/04 07:06:44;;;;;;;;;;;;;;;;;;5051344;28;19970;-83
2022/11/04 07:09:10;;;;;;;;;;;;;;;;;;5049937;28;19912;-83
2022/11/04 07:11:37;;;;;;;;;;;;;;;;;;5066298;28;20383;-83
2022/11/04 07:14:03;;;;;;;;;;;;;;;;;;5084685;28;19959;-85
2022/11/04 07:16:29;;;;;;;;;;;;;;;;;;5064963;28;19960;-79
2022/11/04 07:18:56;;;;;;;;;;;;;;;;;;5069064;28;19916;-79
2022/11/04 07:21:22;;;;;;;;;;;;;;;;;;5068423;28;19966;-79
2022/11/04 07:23:48;;;;;;;;;;;;;;;;;;5087140;28;20043;-79
2022/11/04 07:26:14;;;;;;;;;;;;;;;;;;5067131;28;19999;-79
2022/11/04 07:28:41;;;;;;;;;;;;;;;;;;5086891;28;19943;-80
2022/11/04 07:31:07;;;;;;;;;;;;;;;;;;5080954;28;20354;-79
2022/11/04 07:33:33;;;;;;;;;;;;;;;;;;5051924;28;20033;-80
2022/11/04 07:35:59;;;;;;;;;;;;;;;;;;5065457;28;19964;-80
2022/11/04 07:38:25;;;;;;;;;;;;;;;;;;5049952;28;19944;-84
2022/11/04 07:40:52;;;;;;;;;;;;;;;;;;5044302;28;19967;-75
2022/11/04 07:43:18;;;;;;;;;;;;;;;;;;5079029;28;19951;-76
2022/11/04 07:45:44;;;;;;;;;;;;;;;;;;5084036;28;19952;-75
2022/11/04 07:48:11;;;;;;;;;;;;;;;;;;5078692;28;20390;-76
2022/11/04 07:50:37;;;;;;;;;;;;;;;;;;5085516;28;19956;-75
2022/11/04 07:53:03;;;;;;;;;;;;;;;;;;5080465;28;20367;-76
2022/11/04 07:55:30;;;;;;;;;;;;;;;;;;5085390;28;19971;-75
2022/11/04 07:57:56;;;;;;;;;;;;;;;;;;5085614;28;20471;-75
2022/11/04 08:00:22;;;;;;;;;;;;;;;;;;5083491;28;19966;-75
2022/11/04 08:02:48;;;;;;;;;;;;;;;;;;5085395;28;19954;-77
2022/11/04 08:05:14;;;;;;;;;;;;;;;;;;5080813;28;19920;-77
2022/11/04 08:07:41;;;;;;;;;;;;;;;;;;5050066;28;19963;-77
2022/11/04 08:10:07;;;;;;;;;;;;;;;;;;5066286;28;19954;-77
2022/11/04 08:12:33;;;;;;;;;;;;;;;;;;5070342;28;19920;-79
2022/11/04 08:14:59;;;;;;;;;;;;;;;;;;5085298;28;19974;-76
2022/11/04 08:17:25;;;;;;;;;;;;;;;;;;5052981;28;19962;-75
2022/11/04 08:19:52;;;;;;;;;;;;;;;;;;5084548;28;19941;-76
2022/11/04 08:22:18;;;;;;;;;;;;;;;;;;5072205;28;19952;-76
2022/11/04 08:24:46;;;;;;;;;;;;;;;;;;5089797;28;20434;-75
2022/11/04 08:27:12;;;;;;;;;;;;;;;;;;5088166;28;19974;-75
2022/11/04 08:29:38;;;;;;;;;;;;;;;;;;5071818;28;19955;-76
2022/11/04 08:32:04;;;;;;;;;;;;;;;;;;5088494;28;19975;-76
2022/11/04 08:34:30;;;;;;;;;;;;;;;;;;5088469;28;19956;-76
2022/11/04 08:36:57;;;;;;;;;;;;;;;;;;5086620;28;20024;-75
2022/11/04 08:39:23;;;;;;;;;;;;;;;;;;5048676;28;19920;-75
2022/11/04 08:41:52;;;;;;;;;;;;;;;;;;5086333;28;19967;-76
2022/11/04 08:44:18;;;;;;;;;;;;;;;;;;5084937;28;19970;-75
2022/11/04 08:46:44;;;;;;;;;;;;;;;;;;5050498;28;19940;-75
2022/11/04 08:49:10;;;;;;;;;;;;;;;;;;5068226;28;19990;-79
2022/11/04 08:51:37;;;;;;;;;;;;;;;;;;5067465;28;19948;-79
2022/11/04 08:54:03;;;;;;;;;;;;;;;;;;5085305;28;19924;-79
2022/11/04 08:56:29;;;;;;;;;;;;;;;;;;5065345;28;19927;-78
2022/11/04 08:58:57;;;;;;;;;;;;;;;;;;5073899;28;19955;-78
2022/11/04 09:01:23;;;;;;;;;;;;;;;;;;5049083;28;20319;-78
2022/11/04 09:03:49;;;;;;;;;;;;;;;;;;5084017;28;19974;-78
2022/11/04 09:06:15;;;;;;;;;;;;;;;;;;5086099;28;19943;-78
2022/11/04 09:08:42;;;;;;;;;;;;;;;;;;5064608;28;20061;-78
2022/11/04 09:11:08;;;;;;;;;;;;;;;;;;5052243;28;19912;-79
2022/11/04 09:13:35;;;;;;;;;;;;;;;;;;5069266;28;19982;-78
2022/11/04 09:16:01;;;;;;;;;;;;;;;;;;5058035;28;19948;-77
2022/11/04 09:18:27;;;;;;;;;;;;;;;;;;5087650;28;19982;-76
2022/11/04 09:20:53;;;;;;;;;;;;;;;;;;5063896;28;19940;-80
2022/11/04 09:23:20;;;;;;;;;;;;;;;;;;5039379;28;19991;-77
2022/11/04 09:25:46;;;;;;;;;;;;;;;;;;5059554;28;19959;-77
2022/11/04 09:28:12;;;;;;;;;;;;;;;;;;5051541;28;19959;-83
2022/11/04 09:30:38;;;;;;;;;;;;;;;;;;5053388;28;20009;-75
2022/11/04 09:33:04;;;;;;;;;;;;;;;;;;5086251;28;20001;-76
2022/11/04 09:35:31;;;;;;;;;;;;;;;;;;5087416;28;20394;-75
2022/11/04 09:37:57;;;;;;;;;;;;;;;;;;5069331;28;20434;-76
2022/11/04 09:40:23;;;;;;;;;;;;;;;;;;5078303;28;19966;-77
2022/11/04 09:42:49;;;;;;;;;;;;;;;;;;5068484;28;20001;-76
2022/11/04 09:45:17;;;;;;;;;;;;;;;;;;5066889;28;19970;-76
2022/11/04 09:47:43;;;;;;;;;;;;;;;;;;5077830;28;20017;-76
2022/11/04 09:50:11;;;;;;;;;;;;;;;;;;5066081;28;19966;-77
2022/11/04 09:52:37;;;;;;;;;;;;;;;;;;5086928;28;19960;-76
2022/11/04 09:55:05;;;;;;;;;;;;;;;;;;5083040;28;19958;-80
2022/11/04 09:57:32;;;;;;;;;;;;;;;;;;5059311;28;19990;-79
2022/11/04 09:59:58;;;;;;;;;;;;;;;;;;5065555;28;19944;-80
2022/11/04 10:02:24;;;;;;;;;;;;;;;;;;5065446;28;20450;-80
2022/11/04 10:04:50;;;;;;;;;;;;;;;;;;5051373;28;19944;-81
2022/11/04 10:07:16;;;;;;;;;;;;;;;;;;5058103;28;20671;-80
2022/11/04 10:09:43;;;;;;;;;;;;;;;;;;5083116;28;19951;-81
2022/11/04 10:12:09;;;;;;;;;;;;;;;;;;5046557;28;19955;-81
2022/11/04 10:14:35;;;;;;;;;;;;;;;;;;5087710;28;20394;-81
2022/11/04 10:17:01;;;;;;;;;;;;;;;;;;5051127;28;19952;-80
2022/11/04 10:19:30;;;;;;;;;;;;;;;;;;5065714;28;20418;-81
2022/11/04 10:25:04;;;;;;;;;;;;;;;;;;5012332;28;19924;-80
2022/11/04 10:27:30;;;;;;;;;;;;;;;;;;5065962;28;19951;-80
2022/11/04 10:29:57;;;;;;;;;;;;;;;;;;5043081;28;20334;-78
2022/11/04 10:32:23;;;;;;;;;;;;;;;;;;5068880;28;19959;-77
2022/11/04 10:34:49;;;;;;;;;;;;;;;;;;5067424;28;20327;-76
2022/11/04 10:37:15;;;;;;;;;;;;;;;;;;5085432;28;19920;-77
2022/11/04 10:39:42;;;;;;;;;;;;;;;;;;5083718;28;19927;-78
2022/11/04 10:42:08;;;;;;;;;;;;;;;;;;5070589;28;19951;-78
2022/11/04 10:44:34;;;;;;;;;;;;;;;;;;5067944;28;19974;-78
2022/11/04 10:47:00;;;;;;;;;;;;;;;;;;5060922;28;19955;-78
2022/11/04 10:49:27;;;;;;;;;;;;;;;;;;5085746;28;20498;-78
2022/11/04 10:51:53;;;;;;;;;;;;;;;;;;5085853;28;19939;-78
2022/11/04 10:54:19;;;;;;;;;;;;;;;;;;5084229;28;19920;-77
2022/11/04 10:56:45;;;;;;;;;;;;;;;;;;5085046;28;20255;-78
2022/11/04 10:59:11;;;;;;;;;;;;;;;;;;5065150;28;20326;-78
2022/11/04 11:01:38;;;;;;;;;;;;;;;;;;5085186;28;19951;-78
2022/11/04 11:04:04;;;;;;;;;;;;;;;;;;5084909;28;19990;-77
2022/11/04 11:06:30;;;;;;;;;;;;;;;;;;5084277;28;19916;-77
2022/11/04 11:08:56;;;;;;;;;;;;;;;;;;5051977;28;19967;-77
2022/11/04 11:11:22;;;;;;;;;;;;;;;;;;5084243;28;19954;-78
2022/11/04 11:13:49;;;;;;;;;;;;;;;;;;5086388;28;19920;-78
2022/11/04 11:16:15;;;;;;;;;;;;;;;;;;5067020;28;20028;-78
2022/11/04 11:18:41;;;;;;;;;;;;;;;;;;5084451;28;19952;-78
2022/11/04 11:21:07;;;;;;;;;;;;;;;;;;5067880;28;19916;-75
2022/11/04 11:23:34;;;;;;;;;;;;;;;;;;5067192;28;19958;-76
2022/11/04 11:26:00;;;;;;;;;;;;;;;;;;5051292;28;19959;-75
2022/11/04 11:28:26;;;;;;;;;;;;;;;;;;5082228;28;20555;-76
2022/11/04 11:30:52;;;;;;;;;;;;;;;;;;5063381;28;19920;-76
2022/11/04 11:33:19;;;;;;;;;;;;;;;;;;5063017;28;19951;-76
2022/11/04 11:35:45;;;;;;;;;;;;;;;;;;5059302;28;20014;-76
2022/11/04 11:38:13;;;;;;;;;;;;;;;;;;5041919;28;19956;-81
2022/11/04 11:40:39;;;;;;;;;;;;;;;;;;5065520;28;19960;-76
2022/11/04 11:43:05;;;;;;;;;;;;;;;;;;5062647;28;19927;-78
2022/11/04 11:45:31;;;;;;;;;;;;;;;;;;5062662;28;19920;-75
2022/11/04 11:47:57;;;;;;;;;;;;;;;;;;5082107;28;19969;-75
2022/11/04 11:50:28;;;;;;;;;;;;;;;;;;5081992;28;19986;-75
2022/11/04 11:52:54;;;;;;;;;;;;;;;;;;5058690;28;19948;-75
2022/11/04 11:55:21;;;;;;;;;;;;;;;;;;5083682;28;21526;-75
2022/11/04 11:57:48;;;;;;;;;;;;;;;;;;5065090;28;19947;-79
2022/11/04 12:00:17;;;;;;;;;;;;;;;;;;5084389;28;19963;-79
2022/11/04 12:02:43;;;;;;;;;;;;;;;;;;5063869;28;19968;-79
2022/11/04 12:05:09;;;;;;;;;;;;;;;;;;5067510;28;20001;-79
2022/11/04 12:07:36;;;;;;;;;;;;;;;;;;5067883;28;19943;-78
2022/11/04 12:10:02;;;;;;;;;;;;;;;;;;5049521;28;19966;-79
2022/11/04 12:12:28;;;;;;;;;;;;;;;;;;5050847;28;19959;-79
2022/11/04 12:14:54;;;;;;;;;;;;;;;;;;5067710;28;19948;-79
2022/11/04 12:17:20;;;;;;;;;;;;;;;;;;5067124;28;20021;-79
2022/11/04 12:19:46;;;;;;;;;;;;;;;;;;5066107;28;19959;-78
2022/11/04 12:22:13;;;;;;;;;;;;;;;;;;5084697;28;19959;-78
2022/11/04 12:24:40;;;;;;;;;;;;;;;;;;5083263;28;20010;-77
2022/11/04 12:27:06;;;;;;;;;;;;;;;;;;5068010;28;19951;-77
2022/11/04 12:29:33;;;;;;;;;;;;;;;;;;5067514;28;19937;-78
2022/11/04 12:31:59;;;;;;;;;;;;;;;;;;5067422;28;19955;-77
2022/11/04 12:34:25;;;;;;;;;;;;;;;;;;5070532;28;19947;-77
2022/11/04 12:36:51;;;;;;;;;;;;;;;;;;5054961;28;19963;-77
2022/11/04 12:39:18;;;;;;;;;;;;;;;;;;5073424;28;19985;-78
2022/11/04 12:41:44;;;;;;;;;;;;;;;;;;5080431;28;19924;-78
2022/11/04 12:44:11;;;;;;;;;;;;;;;;;;5076103;28;19956;-78
2022/11/04 12:46:37;;;;;;;;;;;;;;;;;;5047429;28;20031;-77
2022/11/04 12:49:03;;;;;;;;;;;;;;;;;;5076797;28;19944;-78
2022/11/04 12:51:29;;;;;;;;;;;;;;;;;;5055903;28;19970;-78
2022/11/04 12:53:56;;;;;;;;;;;;;;;;;;5067226;28;19959;-77
2022/11/04 12:56:22;;;;;;;;;;;;;;;;;;5066527;28;19962;-77
2022/11/04 12:58:48;;;;;;;;;;;;;;;;;;5074524;28;20423;-78
2022/11/04 13:01:14;;;;;;;;;;;;;;;;;;5052510;28;19973;-78
2022/11/04 13:03:40;;;;;;;;;;;;;;;;;;5068509;28;19955;-77
2022/11/04 13:06:06;;;;;;;;;;;;;;;;;;5058054;28;19959;-77
2022/11/04 13:08:33;;;;;;;;;;;;;;;;;;5087902;28;19966;-78
2022/11/04 13:10:59;;;;;;;;;;;;;;;;;;5086821;28;19916;-78
2022/11/04 13:13:25;;;;;;;;;;;;;;;;;;5069313;28;20399;-78
2022/11/04 13:15:51;;;;;;;;;;;;;;;;;;5070716;28;19958;-78
2022/11/04 13:18:18;;;;;;;;;;;;;;;;;;5042622;28;19971;-78
2022/11/04 13:20:44;;;;;;;;;;;;;;;;;;5089201;28;20221;-78
2022/11/04 13:23:10;;;;;;;;;;;;;;;;;;5088418;28;20528;-79
2022/11/04 13:25:36;;;;;;;;;;;;;;;;;;5048939;28;19967;-78
2022/11/04 13:28:02;;;;;;;;;;;;;;;;;;5069948;28;20386;-79
2022/11/04 13:30:29;;;;;;;;;;;;;;;;;;5086168;28;20314;-79
2022/11/04 13:32:55;;;;;;;;;;;;;;;;;;5040086;28;19967;-79
2022/11/04 13:35:21;;;;;;;;;;;;;;;;;;5055059;28;21809;-80
2022/11/04 13:37:47;;;;;;;;;;;;;;;;;;5076051;28;19955;-79
2022/11/04 13:40:14;;;;;;;;;;;;;;;;;;5087234;28;19924;-78
2022/11/04 13:42:40;;;;;;;;;;;;;;;;;;5087040;28;19973;-76
2022/11/04 13:45:06;;;;;;;;;;;;;;;;;;5068985;28;19976;-77
2022/11/04 13:47:32;;;;;;;;;;;;;;;;;;5070303;28;19959;-76
2022/11/04 13:49:59;;;;;;;;;;;;;;;;;;5087455;28;20354;-76
2022/11/04 13:52:25;;;;;;;;;;;;;;;;;;5084786;28;19958;-76
2022/11/04 13:54:51;;;;;;;;;;;;;;;;;;5084672;28;19928;-77
2022/11/04 13:57:18;;;;;;;;;;;;;;;;;;5083024;28;19955;-76
2022/11/04 13:59:45;;;;;;;;;;;;;;;;;;5088606;28;19963;-77
2022/11/04 14:02:11;;;;;;;;;;;;;;;;;;5069574;28;20354;-77
2022/11/04 14:04:37;;;;;;;;;;;;;;;;;;5059791;28;20295;-76
2022/11/04 14:07:03;;;;;;;;;;;;;;;;;;5054952;28;19947;-78
2022/11/04 14:09:30;;;;;;;;;;;;;;;;;;5069684;28;19951;-77
2022/11/04 14:11:56;;;;;;;;;;;;;;;;;;5047470;28;19935;-78
2022/11/04 14:14:22;;;;;;;;;;;;;;;;;;5068967;28;19973;-78
2022/11/04 14:16:48;;;;;;;;;;;;;;;;;;5070292;28;19948;-78
2022/11/04 14:19:14;;;;;;;;;;;;;;;;;;5087051;28;19912;-77
2022/11/04 14:21:41;;;;;;;;;;;;;;;;;;5064678;28;19952;-78
2022/11/04 14:24:07;;;;;;;;;;;;;;;;;;5061033;28;19964;-78
2022/11/04 14:26:33;;;;;;;;;;;;;;;;;;5050077;28;19952;-76
2022/11/04 14:28:59;;;;;;;;;;;;;;;;;;5067267;28;19944;-76
2022/11/04 14:31:25;;;;;;;;;;;;;;;;;;5056289;28;20295;-77
2022/11/04 14:33:52;;;;;;;;;;;;;;;;;;5051644;28;19970;-77
2022/11/04 14:36:18;;;;;;;;;;;;;;;;;;5066238;28;19928;-77
2022/11/04 14:38:44;;;;;;;;;;;;;;;;;;5066263;28;19920;-76
2022/11/04 14:41:10;;;;;;;;;;;;;;;;;;5046661;28;19924;-76
2022/11/04 14:43:36;;;;;;;;;;;;;;;;;;5066637;28;19977;-76
2022/11/04 14:46:03;;;;;;;;;;;;;;;;;;5063815;28;19967;-80
2022/11/04 14:48:29;;;;;;;;;;;;;;;;;;5067404;28;19959;-80
2022/11/04 14:50:58;;;;;;;;;;;;;;;;;;5067354;28;20355;-81
2022/11/04 14:53:24;;;;;;;;;;;;;;;;;;5066745;28;19920;-84
2022/11/04 14:55:50;;;;;;;;;;;;;;;;;;5068080;28;20547;-84
2022/11/04 14:58:16;;;;;;;;;;;;;;;;;;5044135;28;19944;-84
2022/11/04 15:00:42;;;;;;;;;;;;;;;;;;5068308;28;20327;-84
2022/11/04 15:03:08;;;;;;;;;;;;;;;;;;5047784;28;19955;-83
2022/11/04 15:05:36;;;;;;;;;;;;;;;;;;5065387;28;20390;-83
2022/11/04 15:08:02;;;;;;;;;;;;;;;;;;5051505;28;20035;-83
2022/11/04 15:10:29;;;;;;;;;;;;;;;;;;5068050;28;20391;-84
2022/11/04 15:12:55;;;;;;;;;;;;;;;;;;5067758;28;19951;-84
2022/11/04 15:15:21;;;;;;;;;;;;;;;;;;5048770;28;20417;-85
2022/11/04 15:17:47;;;;;;;;;;;;;;;;;;5033596;28;19947;-85
2022/11/04 15:20:16;;;;;;;;;;;;;;;;;;5029371;28;20450;-85
2022/11/04 15:22:43;;;;;;;;;;;;;;;;;;5048852;28;19928;-85
2022/11/04 15:25:10;;;;;;;;;;;;;;;;;;5064075;28;19920;-84
2022/11/04 15:27:36;;;;;;;;;;;;;;;;;;5050867;28;19916;-85
2022/11/04 15:30:02;;;;;;;;;;;;;;;;;;5048924;28;19943;-84
2022/11/04 15:32:28;;;;;;;;;;;;;;;;;;5066284;28;19948;-85
2022/11/04 15:34:55;;;;;;;;;;;;;;;;;;5049984;28;19943;-85
2022/11/04 15:37:22;;;;;;;;;;;;;;;;;;5046672;28;19962;-82
2022/11/04 15:39:48;;;;;;;;;;;;;;;;;;5067737;28;19971;-81
2022/11/04 15:45:01;;;;;;;;;;;;;;;;;;5064298;28;19963;-81
2022/11/04 15:47:28;;;;;;;;;;;;;;;;;;5047240;28;19916;-82
2022/11/04 15:49:54;;;;;;;;;;;;;;;;;;5063660;28;19955;-82
2022/11/04 15:52:20;;;;;;;;;;;;;;;;;;5057337;28;20473;-84
2022/11/04 15:54:47;;;;;;;;;;;;;;;;;;5064291;28;19947;-81
2022/11/04 15:57:13;;;;;;;;;;;;;;;;;;5038376;28;20388;-82
2022/11/04 15:59:39;;;;;;;;;;;;;;;;;;5038061;28;19967;-83
2022/11/04 16:02:05;;;;;;;;;;;;;;;;;;5025320;28;20622;-81
2022/11/04 16:04:32;;;;;;;;;;;;;;;;;;5056683;28;19963;-81
2022/11/04 16:06:58;;;;;;;;;;;;;;;;;;5047024;28;20292;-81
2022/11/04 16:09:25;;;;;;;;;;;;;;;;;;5082827;28;19962;-79
2022/11/04 16:11:51;;;;;;;;;;;;;;;;;;5065221;28;19958;-80
2022/11/04 16:14:17;;;;;;;;;;;;;;;;;;5060564;28;19920;-79
2022/11/04 16:16:43;;;;;;;;;;;;;;;;;;5043690;28;20379;-81
2022/11/04 16:19:09;;;;;;;;;;;;;;;;;;5048529;28;19951;-81
2022/11/04 16:21:36;;;;;;;;;;;;;;;;;;5083869;28;19963;-81
2022/11/04 16:24:02;;;;;;;;;;;;;;;;;;5053015;28;19959;-81
2022/11/04 16:26:28;;;;;;;;;;;;;;;;;;5064817;28;20379;-81
2022/11/04 16:28:55;;;;;;;;;;;;;;;;;;5064562;28;20446;-79
2022/11/04 16:31:21;;;;;;;;;;;;;;;;;;5064225;28;20575;-82
2022/11/04 16:33:47;;;;;;;;;;;;;;;;;;5052347;28;19927;-81
2022/11/04 16:36:22;;;;;;;;;;;;;;;;;;5086834;28;19971;-83
2022/11/04 16:38:48;;;;;;;;;;;;;;;;;;5067486;28;19986;-82
2022/11/04 16:41:14;;;;;;;;;;;;;;;;;;5067943;28;19955;-84
2022/11/04 16:43:41;;;;;;;;;;;;;;;;;;5050207;28;20035;-83
2022/11/04 16:46:07;;;;;;;;;;;;;;;;;;5083856;28;19947;-80
2022/11/04 16:48:37;;;;;;;;;;;;;;;;;;5015163;28;20392;-81
2022/11/04 16:51:03;;;;;;;;;;;;;;;;;;5064566;28;19955;-82
2022/11/04 16:53:29;;;;;;;;;;;;;;;;;;5084049;28;19912;-80
2022/11/04 16:55:55;;;;;;;;;;;;;;;;;;5068599;28;19924;-81
2022/11/04 16:58:21;;;;;;;;;;;;;;;;;;5082421;28;19959;-76
2022/11/04 17:00:47;;;;;;;;;;;;;;;;;;5066067;28;19963;-77
2022/11/04 17:03:19;;;;;;;;;;;;;;;;;;5064456;28;20156;-79
2022/11/04 17:05:46;;;;;;;;;;;;;;;;;;5065463;28;20341;-77
2022/11/04 17:08:12;;;;;;;;;;;;;;;;;;5083769;28;20236;-77
2022/11/04 17:10:38;;;;;;;;;;;;;;;;;;5051239;28;19969;-77
2022/11/04 17:13:05;;;;;;;;;;;;;;;;;;5066166;28;19959;-78